Time;durP1;ratioP1;P1;durP2;ratioP2;P2;SDS_P1;SDS_P2;PMS_P1;PMS_P2;Temp;Humidity;BMP_temperature;BMP_pressure;BME280_temperature;BME280_humidity;BME280_pressure;Samples;Min_cycle;Max_cycle;Signal;HPM_P1;HPM_P2
2022/12/15 00:39:03;;;;;;;;;60.50;50.50;;;;;0.97;61.37;99682.41;5038101;28;45317;-72
2022/12/15 00:41:28;;;;;;;;;65.50;54.25;;;;;0.54;61.77;99616.59;5038479;28;45398;-71
2022/12/15 00:43:53;;;;;;;;;69.00;57.33;;;;;0.88;61.25;99678.22;5018940;28;45221;-72
2022/12/15 00:49:03;;;;;;;;;63.75;52.50;;;;;0.79;61.53;99692.19;5040440;28;45436;-74
2022/12/15 01:21:41;;;;;;;;;71.00;55.67;;;;;0.06;63.66;99682.75;5035763;28;45391;-71
2022/12/15 01:24:06;;;;;;;;;63.00;51.75;;;;;0.02;63.72;99704.34;5036462;28;45391;-72
2022/12/15 01:26:32;;;;;;;;;67.25;56.25;;;;;0.00;63.86;99716.44;5037024;28;45241;-71
2022/12/15 01:28:57;;;;;;;;;67.75;55.50;;;;;-0.02;63.59;99719.03;5036428;28;45534;-73
2022/12/15 01:31:22;;;;;;;;;58.00;49.50;;;;;-0.05;63.66;99726.81;5036717;28;45412;-71
2022/12/15 01:33:52;;;;;;;;;72.33;59.67;;;;;-0.06;64.04;99717.34;5037989;28;45317;-72
2022/12/15 01:36:17;;;;;;;;;71.50;54.75;;;;;-0.10;63.95;99710.50;5037686;28;45298;-73
2022/12/15 01:38:43;;;;;;;;;71.25;58.25;;;;;-0.11;64.00;99706.19;5036775;28;52269;-71
2022/12/15 01:41:10;;;;;;;;;65.00;54.25;;;;;-0.19;64.01;99702.84;5019853;28;45216;-72
2022/12/15 01:43:38;;;;;;;;;64.75;53.75;;;;;-0.18;64.42;99715.72;5037430;28;45321;-71
2022/12/15 01:46:25;;;;;;;;;67.00;54.25;;;;;-0.22;64.27;99711.47;5019520;28;45609;-71
2022/12/15 01:48:58;;;;;;;;;69.25;56.25;;;;;-0.25;64.10;99718.41;5035471;28;46241;-72
2022/12/15 01:51:36;;;;;;;;;68.75;57.00;;;;;-0.32;64.53;99720.19;5035881;28;45261;-72
2022/12/15 01:54:08;;;;;;;;;68.50;56.50;;;;;-0.24;65.07;99722.72;5035803;28;45299;-72
2022/12/15 01:56:45;;;;;;;;;62.50;52.50;;;;;-0.25;64.80;99728.75;5035948;28;45516;-71
2022/12/15 01:59:18;;;;;;;;;64.75;53.75;;;;;-0.30;64.65;99718.44;5036831;28;46492;-71
2022/12/15 02:01:44;;;;;;;;;68.50;56.75;;;;;-0.35;64.43;99709.88;5002685;28;45246;-71
2022/12/15 02:04:10;;;;;;;;;70.00;57.67;;;;;-0.34;65.01;99711.59;5036268;28;45226;-71
2022/12/15 02:06:35;;;;;;;;;62.50;52.25;;;;;-0.34;64.96;99704.72;5037589;28;45252;-71
2022/12/15 02:09:02;;;;;;;;;76.75;57.75;;;;;-0.33;65.37;99713.31;5036907;28;45282;-71
2022/12/15 02:11:46;;;;;;;;;73.00;58.00;;;;;-0.31;65.21;99720.19;5036106;28;45253;-72
2022/12/15 02:14:32;;;;;;;;;66.00;54.50;;;;;-0.37;65.32;99703.88;5035234;28;45312;-72
2022/12/15 02:17:13;;;;;;;;;66.50;53.00;;;;;-0.33;65.34;99709.00;5020192;28;45394;-71
2022/12/15 02:19:57;;;;;;;;;63.00;52.75;;;;;-0.35;65.30;99708.16;5035585;28;45333;-70
2022/12/15 02:22:40;;;;;;;;;63.50;53.50;;;;;-0.40;65.77;99709.94;5036439;28;45467;-70
2022/12/15 02:25:42;;;;;;;;;66.75;54.25;;;;;-0.46;65.97;99713.41;5037722;28;45383;-71
2022/12/15 02:28:23;;;;;;;;;66.00;55.00;;;;;-0.51;65.63;99722.94;5038161;28;45348;-72
2022/12/15 02:34:13;;;;;;;;;63.75;53.00;;;;;-0.61;66.24;99708.38;5036831;28;45373;-72
2022/12/15 02:36:43;;;;;;;;;66.75;52.50;;;;;-0.59;65.43;99706.66;5035960;28;45918;-72
2022/12/15 02:39:11;;;;;;;;;64.50;54.25;;;;;-0.61;66.27;99709.22;5035715;28;45457;-73
2022/12/15 02:41:45;;;;;;;;;61.00;51.25;;;;;-0.62;66.23;99709.25;5035034;28;46258;-73
2022/12/15 02:44:23;;;;;;;;;66.75;56.50;;;;;-0.67;65.87;99723.94;5034871;28;45301;-71
2022/12/15 02:46:49;;;;;;;;;63.50;53.25;;;;;-0.74;65.59;99718.81;5035409;28;45389;-72
2022/12/15 02:49:28;;;;;;;;;67.25;56.00;;;;;-0.77;65.99;99718.84;5037202;28;45360;-72
2022/12/15 02:52:14;;;;;;;;;69.00;55.75;;;;;-0.81;66.59;99719.72;5036902;28;46220;-71
2022/12/15 02:55:33;;;;;;;;;62.00;53.50;;;;;-0.83;66.04;99729.22;5035828;28;45492;-71
2022/12/15 02:58:19;;;;;;;;;63.50;53.25;;;;;-0.86;66.01;99723.19;4938145;28;45573;-70
2022/12/15 03:01:10;;;;;;;;;61.50;50.25;;;;;-0.92;66.54;99722.38;5039059;28;45281;-71
2022/12/15 03:03:39;;;;;;;;;72.00;59.00;;;;;-0.96;66.39;99717.25;5039831;28;45504;-72
2022/12/15 03:06:05;;;;;;;;;65.50;55.75;;;;;-0.95;66.37;99716.41;5043558;28;45232;-71
2022/12/15 03:08:31;;;;;;;;;70.50;56.75;;;;;-0.98;67.18;99725.00;5042314;28;45426;-72
2022/12/15 03:10:57;;;;;;;;;70.00;57.75;;;;;-1.29;66.94;99694.22;5038249;28;45518;-73
2022/12/15 03:13:24;;;;;;;;;74.00;57.75;;;;;-1.05;66.71;99723.31;5037980;28;46220;-70
2022/12/15 03:15:51;;;;;;;;;65.75;54.50;;;;;-1.06;66.85;99730.22;5038902;28;45373;-71
2022/12/15 03:18:16;;;;;;;;;67.50;55.00;;;;;-1.07;66.69;99723.31;5039368;28;45985;-72
2022/12/15 03:20:41;;;;;;;;;69.25;56.75;;;;;-1.08;66.62;99720.78;5039125;28;45643;-72
2022/12/15 03:23:07;;;;;;;;;71.33;58.00;;;;;-1.11;66.70;99731.94;5036981;28;57070;-71
2022/12/15 03:25:33;;;;;;;;;59.25;51.75;;;;;-1.17;67.52;99724.25;5019521;28;45322;-70
2022/12/15 03:27:59;;;;;;;;;66.00;54.00;;;;;-1.13;67.24;99731.09;5038073;28;45426;-71
2022/12/15 03:30:24;;;;;;;;;65.75;53.50;;;;;-1.15;67.04;99722.50;5020747;28;45570;-72
2022/12/15 03:32:50;;;;;;;;;66.25;56.25;;;;;-1.16;67.85;99723.38;5043693;28;44909;-71
2022/12/15 03:35:15;;;;;;;;;63.25;53.00;;;;;-1.16;67.92;99719.97;5038727;28;45208;-71
2022/12/15 03:37:41;;;;;;;;;70.50;56.25;;;;;-1.16;67.60;99712.22;5039175;28;45276;-71
2022/12/15 03:40:08;;;;;;;;;68.75;57.75;;;;;-1.18;67.93;99715.66;5039283;28;45520;-73
2022/12/15 03:42:49;;;;;;;;;67.00;54.25;;;;;-1.22;67.78;99710.50;5037392;28;46257;-71
2022/12/15 03:45:23;;;;;;;;;61.75;51.00;;;;;-1.23;68.03;99713.97;5038870;28;45317;-72
2022/12/15 03:47:49;;;;;;;;;75.25;61.50;;;;;-1.28;68.28;99714.00;5038500;28;45292;-71
2022/12/15 03:50:18;;;;;;;;;66.00;56.50;;;;;-1.32;68.28;99705.41;5038248;28;45575;-71
2022/12/15 03:52:44;;;;;;;;;64.25;54.50;;;;;-1.36;68.14;99698.56;5037321;28;45709;-71
2022/12/15 03:55:10;;;;;;;;;70.00;59.00;;;;;-1.37;67.64;99702.00;5037902;28;45430;-70
2022/12/15 03:57:35;;;;;;;;;75.00;61.00;;;;;-1.66;68.25;99669.47;5039658;28;45364;-72
2022/12/15 04:00:01;;;;;;;;;54.33;48.33;;;;;-1.44;68.15;99696.91;5040086;28;45505;-71
2022/12/15 04:02:26;;;;;;;;;74.33;62.33;;;;;-1.52;68.24;99696.91;5043034;28;46383;-71
2022/12/15 04:04:52;;;;;;;;;64.75;55.50;;;;;-1.43;68.25;99709.78;5022826;28;45313;-72
2022/12/15 04:07:17;;;;;;;;;68.50;56.75;;;;;-1.49;68.71;99704.66;5039775;28;45431;-72
2022/12/15 04:09:42;;;;;;;;;69.50;56.50;;;;;-1.40;68.46;99726.97;5036955;28;45479;-70
2022/12/15 04:12:11;;;;;;;;;78.00;62.67;;;;;-1.43;68.58;99717.50;5019588;28;47430;-71
2022/12/15 04:14:41;;;;;;;;;71.67;59.00;;;;;-1.40;68.38;99721.81;5037635;28;45218;-72
2022/12/15 04:17:09;;;;;;;;;47.33;45.67;;;;;-1.46;68.96;99707.22;5038106;28;45301;-72
2022/12/15 04:22:19;;;;;;;;;68.67;57.67;;;;;-1.37;68.97;99708.91;5036723;28;45922;-71
2022/12/15 05:33:08;;;;;;;;;77.33;62.00;;;;;-1.02;67.38;99691.50;5037652;28;45341;-70
2022/12/15 05:35:33;;;;;;;;;67.50;57.25;;;;;-1.04;67.66;99692.34;5040490;28;44884;-72
2022/12/15 05:37:59;;;;;;;;;66.33;53.67;;;;;-1.01;67.29;99706.94;5038493;28;45412;-71
2022/12/15 05:40:24;;;;;;;;;57.50;48.75;;;;;-1.02;68.03;99701.81;5037735;28;45593;-71
2022/12/15 05:42:49;;;;;;;;;66.33;56.00;;;;;-1.05;67.79;99713.88;5037233;28;45182;-71
2022/12/15 05:45:15;;;;;;;;;66.00;54.75;;;;;-1.05;67.60;99711.28;5038704;28;45184;-72
2022/12/15 05:47:40;;;;;;;;;74.67;59.33;;;;;-1.00;67.44;99715.56;5038579;28;45328;-71
2022/12/15 05:50:06;;;;;;;;;64.33;53.33;;;;;-0.98;67.38;99726.75;5036064;28;45879;-71
2022/12/15 05:52:32;;;;;;;;;66.33;55.67;;;;;-1.00;67.93;99718.16;5036605;28;45295;-71
2022/12/15 05:54:57;;;;;;;;;69.33;56.67;;;;;-0.99;67.22;99722.44;5036715;28;45287;-72
2022/12/15 05:57:22;;;;;;;;;65.00;54.00;;;;;-1.00;67.26;99718.16;5036087;28;46582;-71
2022/12/15 05:59:48;;;;;;;;;67.67;55.33;;;;;-1.04;67.39;99709.56;5036263;28;45253;-73
2022/12/15 06:02:13;;;;;;;;;65.33;54.00;;;;;-1.05;67.40;99707.84;5035635;28;45329;-72
2022/12/15 06:04:39;;;;;;;;;71.33;58.67;;;;;-1.07;67.92;99725.91;5037059;28;45469;-73
2022/12/15 06:07:05;;;;;;;;;66.75;56.00;;;;;-1.09;68.12;99731.97;5035797;28;45933;-71
2022/12/15 06:09:30;;;;;;;;;62.75;52.75;;;;;-1.15;67.73;99722.50;5035388;28;45371;-71
2022/12/15 06:11:55;;;;;;;;;72.67;58.00;;;;;-1.13;67.90;99725.94;5035817;28;45395;-73
2022/12/15 06:14:21;;;;;;;;;70.67;59.00;;;;;-1.12;67.14;99729.41;5035912;28;45529;-71
2022/12/15 06:16:46;;;;;;;;;69.33;58.00;;;;;-1.09;67.61;99732.81;5034886;28;46431;-72
2022/12/15 06:19:11;;;;;;;;;77.33;59.33;;;;;-1.08;67.88;99720.78;5034837;28;45284;-71
2022/12/15 06:21:37;;;;;;;;;57.33;48.00;;;;;-1.08;67.68;99718.19;5035900;28;45460;-74
2022/12/15 06:24:06;;;;;;;;;68.67;56.33;;;;;-1.07;67.38;99727.66;5035788;28;45592;-71
2022/12/15 06:26:36;;;;;;;;;69.67;57.33;;;;;-1.13;67.75;99725.94;5037053;28;47184;-72
2022/12/15 06:29:04;;;;;;;;;65.33;55.33;;;;;-1.10;67.68;99732.81;5020534;28;45470;-73
2022/12/15 06:31:31;;;;;;;;;70.67;59.00;;;;;-1.13;68.41;99732.84;5016702;28;45234;-71
2022/12/15 06:33:57;;;;;;;;;70.00;56.25;;;;;-1.13;68.07;99740.59;5035743;28;45976;-72
2022/12/15 06:36:23;;;;;;;;;69.50;58.25;;;;;-1.18;67.50;99743.19;5035736;28;45317;-72
2022/12/15 06:38:49;;;;;;;;;71.00;60.00;;;;;-1.21;68.53;99738.91;5036049;28;45543;-71
2022/12/15 06:41:17;;;;;;;;;72.25;58.25;;;;;-1.22;68.20;99736.31;5035851;28;45376;-70
2022/12/15 06:43:51;;;;;;;;;77.67;63.33;;;;;-1.28;68.18;99729.50;5035092;28;45614;-70
2022/12/15 06:46:17;;;;;;;;;68.50;54.25;;;;;-1.28;68.04;99733.78;5034963;28;45377;-71
2022/12/15 06:48:44;;;;;;;;;67.00;56.33;;;;;-1.30;68.10;99731.22;5036449;28;45352;-71
2022/12/15 06:51:11;;;;;;;;;66.67;55.00;;;;;-1.30;68.62;99735.50;5037802;28;45258;-71
2022/12/15 06:53:39;;;;;;;;;68.67;57.33;;;;;-1.29;68.24;99739.81;5039024;28;45501;-71
2022/12/15 06:56:07;;;;;;;;;56.00;50.00;;;;;-1.30;68.91;99746.69;5037928;28;46519;-71
2022/12/15 06:58:33;;;;;;;;;68.25;51.50;;;;;-1.51;68.40;99707.25;5018797;28;45440;-71
2022/12/15 07:01:04;;;;;;;;;73.33;61.33;;;;;-1.27;67.92;99754.44;5035845;28;45322;-71
2022/12/15 07:03:30;;;;;;;;;67.25;55.75;;;;;-1.28;68.93;99757.00;5035876;28;45511;-71
2022/12/15 07:06:03;;;;;;;;;68.00;57.67;;;;;-1.28;68.95;99754.41;5035280;28;45500;-70
2022/12/15 07:08:29;;;;;;;;;72.75;58.75;;;;;-1.25;68.65;99756.97;5035889;28;45288;-73
2022/12/15 07:10:55;;;;;;;;;68.25;56.00;;;;;-1.24;68.41;99756.13;5036083;28;45472;-71
2022/12/15 07:13:21;;;;;;;;;73.33;60.33;;;;;-1.32;68.74;99745.84;5036792;28;45427;-71
2022/12/15 07:15:48;;;;;;;;;70.25;59.00;;;;;-1.29;68.44;99753.56;5036811;28;46450;-72
2022/12/15 07:18:14;;;;;;;;;72.67;62.33;;;;;-1.32;68.21;99751.00;5019469;28;45455;-72
2022/12/15 07:20:40;;;;;;;;;68.00;56.25;;;;;-1.30;68.47;99751.00;5036216;28;45334;-75
2022/12/15 07:23:08;;;;;;;;;74.00;60.67;;;;;-1.25;68.77;99754.41;5036176;28;45230;-73
2022/12/15 07:25:38;;;;;;;;;67.00;57.00;;;;;-1.27;68.61;99759.59;5034850;28;46291;-71
2022/12/15 07:28:04;;;;;;;;;64.25;53.00;;;;;-1.32;68.32;99766.50;5035421;28;45289;-72
2022/12/15 07:30:31;;;;;;;;;70.67;57.67;;;;;-1.38;67.96;99764.78;5035267;28;45222;-71
2022/12/15 07:32:56;;;;;;;;;78.33;64.67;;;;;-1.56;68.50;99747.69;5036459;28;45285;-70
2022/12/15 07:35:21;;;;;;;;;75.67;62.33;;;;;-1.63;68.57;99740.81;5035977;28;45580;-71
2022/12/15 07:37:47;;;;;;;;;64.67;55.67;;;;;-1.45;68.78;99782.88;5035147;28;45260;-71
2022/12/15 07:40:13;;;;;;;;;76.67;64.00;;;;;-1.52;68.74;99782.03;5036253;28;45306;-72
2022/12/15 07:42:38;;;;;;;;;71.75;57.00;;;;;-1.53;68.80;99786.34;5019377;28;45560;-72
2022/12/15 07:45:06;;;;;;;;;67.33;57.33;;;;;-1.58;68.18;99792.38;5038417;28;45464;-72
2022/12/15 07:47:31;;;;;;;;;74.67;60.33;;;;;-1.53;68.80;99798.38;5016090;28;45494;-74
2022/12/15 07:49:57;;;;;;;;;73.67;61.67;;;;;-1.52;69.07;99805.25;5038087;28;45360;-75
2022/12/15 07:52:23;;;;;;;;;63.75;54.50;;;;;-1.45;68.85;99799.22;5038276;28;45349;-75
2022/12/15 07:54:48;;;;;;;;;80.67;64.00;;;;;-1.61;68.82;99772.59;5038745;28;45482;-73
2022/12/15 07:57:15;;;;;;;;;62.67;54.33;;;;;-1.48;68.13;99786.31;5019677;28;45380;-73
2022/12/15 07:59:40;;;;;;;;;71.33;57.00;;;;;-1.36;68.81;99812.06;5019778;28;45336;-75
2022/12/15 08:02:06;;;;;;;;;73.00;60.67;;;;;-1.41;68.49;99795.75;5038981;28;45340;-70
2022/12/15 08:04:31;;;;;;;;;71.33;60.00;;;;;-1.30;67.90;99806.06;5033143;28;45413;-74
2022/12/15 08:06:57;;;;;;;;;75.33;61.00;;;;;-1.30;68.27;99803.47;5023852;28;45290;-72
2022/12/15 08:09:24;;;;;;;;;69.00;58.00;;;;;-1.28;68.16;99812.06;5039099;28;45520;-72
2022/12/15 08:11:49;;;;;;;;;76.00;60.67;;;;;-1.28;68.69;99824.97;5029664;28;45519;-73
2022/12/15 08:14:16;;;;;;;;;73.00;60.67;;;;;-1.26;68.35;99828.41;5016556;28;46214;-73
2022/12/15 08:16:42;;;;;;;;;76.33;63.67;;;;;-1.26;67.85;99838.72;5036457;28;45356;-74
2022/12/15 08:19:11;;;;;;;;;75.33;59.00;;;;;-1.28;67.61;99837.00;5019540;28;45454;-72
2022/12/15 08:21:39;;;;;;;;;75.00;60.00;;;;;-1.28;67.90;99843.03;5016728;28;45381;-69
2022/12/15 08:24:04;;;;;;;;;76.67;61.33;;;;;-1.25;67.85;99844.72;5025073;28;46222;-73
2022/12/15 08:26:30;;;;;;;;;77.00;62.33;;;;;-1.25;68.12;99847.31;5026442;28;45538;-72
2022/12/15 08:28:56;;;;;;;;;71.67;58.00;;;;;-1.21;68.22;99847.31;5036896;28;45360;-70
2022/12/15 08:31:23;;;;;;;;;73.67;61.33;;;;;-1.21;67.72;99836.09;5039336;28;45352;-73
2022/12/15 08:33:50;;;;;;;;;69.00;55.00;;;;;-1.24;67.58;99826.66;5039633;28;46253;-69
2022/12/15 08:36:17;;;;;;;;;73.33;61.00;;;;;-1.16;67.64;99841.25;5037493;28;45313;-69
2022/12/15 08:38:45;;;;;;;;;81.67;62.33;;;;;-1.15;68.12;99842.97;5037131;28;45393;-69
2022/12/15 08:41:15;;;;;;;;;69.67;57.67;;;;;-1.12;67.50;99842.97;5020075;28;45354;-71
2022/12/15 08:43:41;;;;;;;;;69.00;57.67;;;;;-1.09;67.41;99851.53;5020844;28;47302;-70
2022/12/15 08:46:07;;;;;;;;;72.67;58.33;;;;;-1.05;67.63;99842.94;5023471;28;45313;-72
2022/12/15 08:48:34;;;;;;;;;80.67;61.33;;;;;-1.00;67.28;99835.16;5036635;28;45327;-69
2022/12/15 08:50:59;;;;;;;;;76.67;63.33;;;;;-0.93;67.17;99846.34;5020963;28;45577;-73
2022/12/15 08:53:25;;;;;;;;;75.00;59.00;;;;;-0.91;67.13;99837.69;5039081;28;45332;-72
2022/12/15 08:55:51;;;;;;;;;68.67;57.67;;;;;-0.86;66.98;99835.09;5037486;28;45340;-73
2022/12/15 08:58:17;;;;;;;;;74.00;58.33;;;;;-0.95;66.60;99824.81;5038135;28;45359;-71
2022/12/15 09:00:43;;;;;;;;;72.00;59.33;;;;;-0.89;66.54;99822.22;5038973;28;45418;-71
2022/12/15 09:03:08;;;;;;;;;70.33;59.00;;;;;-0.87;66.96;99833.38;5037762;28;45441;-75
2022/12/15 09:05:35;;;;;;;;;79.00;62.67;;;;;-0.79;66.75;99836.78;5037614;28;45334;-71
2022/12/15 09:08:01;;;;;;;;;69.67;58.67;;;;;-0.80;66.54;99831.63;5018639;28;45325;-73
2022/12/15 09:10:26;;;;;;;;;73.75;59.50;;;;;-0.72;66.59;99829.00;5036506;28;45321;-74
2022/12/15 09:12:52;;;;;;;;;76.33;63.33;;;;;-0.75;66.42;99820.41;5036213;28;45424;-74
2022/12/15 09:15:18;;;;;;;;;75.67;61.00;;;;;-0.62;66.67;99838.41;5036249;28;45274;-69
2022/12/15 09:17:44;;;;;;;;;70.00;58.33;;;;;-0.57;66.28;99843.53;5037274;28;45313;-67
2022/12/15 09:20:10;;;;;;;;;65.67;53.33;;;;;-0.55;66.29;99841.78;5039344;28;45325;-69
2022/12/15 09:22:35;;;;;;;;;78.00;62.00;;;;;-0.49;66.55;99845.22;5038114;28;45428;-70
2022/12/15 09:25:03;;;;;;;;;76.67;61.33;;;;;-0.51;66.25;99830.59;5017775;28;45369;-69
2022/12/15 09:27:31;;;;;;;;;77.67;61.33;;;;;-0.37;66.46;99844.28;5036250;28;45336;-70
2022/12/15 09:29:57;;;;;;;;;82.00;66.00;;;;;-0.34;66.00;99840.81;5036546;28;45500;-72
2022/12/15 09:32:22;;;;;;;;;73.33;58.67;;;;;-0.27;65.93;99850.22;5035871;28;45995;-72
2022/12/15 09:34:50;;;;;;;;;80.67;63.33;;;;;-0.24;65.49;99839.88;5035910;28;45223;-68
2022/12/15 09:37:15;;;;;;;;;75.33;58.67;;;;;-0.17;65.81;99846.69;5036956;28;45367;-74
2022/12/15 09:39:41;;;;;;;;;70.00;57.25;;;;;-0.07;65.54;99849.19;5036488;28;45600;-68
2022/12/15 09:42:22;;;;;;;;;69.25;57.75;;;;;-0.03;65.75;99845.72;5035812;28;46088;-69
2022/12/15 09:44:54;;;;;;;;;75.00;59.33;;;;;-0.04;65.51;99844.88;5020149;28;45375;-69
2022/12/15 09:47:49;;;;;;;;;61.67;50.33;;;;;0.08;65.43;99856.84;5018569;28;45298;-67
2022/12/15 09:50:18;;;;;;;;;71.33;58.33;;;;;0.17;65.16;99875.75;5037130;28;45269;-72
2022/12/15 09:52:48;;;;;;;;;69.33;55.33;;;;;0.19;65.23;99874.00;5018063;28;47864;-73
2022/12/15 09:55:25;;;;;;;;;73.00;58.75;;;;;0.23;64.92;99879.13;5035462;28;45401;-73
2022/12/15 09:57:54;;;;;;;;;76.75;58.50;;;;;0.24;65.02;99872.25;5035672;28;45242;-69
2022/12/15 10:00:27;;;;;;;;;72.67;60.33;;;;;0.21;64.50;99856.75;5035599;28;45614;-72
2022/12/15 10:03:38;;;;;;;;;67.25;55.25;;;;;0.33;65.15;99872.16;5035447;28;45315;-72
2022/12/15 10:06:13;;;;;;;;;71.50;59.00;;;;;0.41;64.63;99872.94;5003565;28;45195;-73
2022/12/15 10:09:01;;;;;;;;;73.25;59.25;;;;;0.45;64.35;99865.13;5036690;28;45442;-71
2022/12/15 10:11:29;;;;;;;;;75.33;59.67;;;;;0.46;64.09;99867.69;5034862;28;45224;-73
2022/12/15 10:14:18;;;;;;;;;66.50;55.25;;;;;0.46;64.00;99872.03;5035616;28;45447;-68
2022/12/15 10:17:01;;;;;;;;;71.00;58.00;;;;;0.48;64.13;99857.34;5017114;28;45375;-68
2022/12/15 10:19:48;;;;;;;;;66.75;55.25;;;;;0.57;64.30;99865.88;5035382;28;45416;-73
2022/12/15 10:22:22;;;;;;;;;72.67;59.00;;;;;0.69;64.57;99869.22;5035218;28;45507;-69
2022/12/15 10:24:48;;;;;;;;;78.00;56.67;;;;;0.81;64.17;99869.06;5035430;28;46223;-71
2022/12/15 10:27:52;;;;;;;;;70.25;57.00;;;;;0.85;63.62;99857.78;5035964;28;45235;-68
2022/12/15 10:30:18;;;;;;;;;65.00;52.75;;;;;0.94;63.53;99868.91;5035211;28;45339;-69
2022/12/15 10:32:58;;;;;;;;;68.50;57.25;;;;;1.03;63.57;99863.63;5017633;28;45710;-68
2022/12/15 10:35:28;;;;;;;;;73.00;58.50;;;;;0.80;63.98;99804.34;5036213;28;46474;-71
2022/12/15 10:38:05;;;;;;;;;75.33;59.33;;;;;1.20;63.71;99854.78;5035235;28;45424;-71
2022/12/15 10:40:46;;;;;;;;;75.00;62.33;;;;;1.24;63.66;99841.78;5035446;28;45245;-72
2022/12/15 10:43:35;;;;;;;;;79.33;63.00;;;;;1.28;63.97;99838.25;5037109;28;45435;-70
2022/12/15 10:46:03;;;;;;;;;80.00;63.67;;;;;1.30;63.69;99828.72;5007650;28;47120;-70
2022/12/15 10:48:29;;;;;;;;;85.00;67.00;;;;;1.35;63.66;99827.81;5036904;28;45325;-71
2022/12/15 10:51:13;;;;;;;;;71.00;57.00;;;;;1.37;63.78;99810.50;5034855;28;45349;-71
2022/12/15 10:53:38;;;;;;;;;71.00;57.50;;;;;1.44;62.96;99819.91;5035010;28;45214;-70
2022/12/15 10:56:07;;;;;;;;;84.33;69.00;;;;;1.53;62.84;99811.97;5034680;28;45254;-70
2022/12/15 10:58:45;;;;;;;;;74.67;58.67;;;;;1.55;62.35;99801.56;5017266;28;45507;-70
2022/12/15 11:01:16;;;;;;;;;74.00;59.33;;;;;1.58;62.86;99806.72;5035736;28;45365;-74
2022/12/15 11:03:42;;;;;;;;;71.00;58.50;;;;;1.58;62.40;99791.16;5035623;28;45629;-71
2022/12/15 11:06:15;;;;;;;;;76.00;60.00;;;;;1.62;62.05;99791.97;5035684;28;45949;-73
2022/12/15 11:08:43;;;;;;;;;73.75;57.75;;;;;1.67;62.56;99783.25;5036668;28;44890;-73
2022/12/15 11:14:23;;;;;;;;;71.75;58.00;;;;;1.79;62.01;99770.97;5036228;28;45357;-72
2022/12/15 11:16:52;;;;;;;;;64.25;53.25;;;;;1.77;60.72;99763.19;5035598;28;46211;-70
2022/12/15 11:19:54;;;;;;;;;70.25;56.75;;;;;1.71;60.44;99751.22;5039223;28;45198;-73
2022/12/15 11:22:38;;;;;;;;;64.75;53.75;;;;;1.68;60.88;99742.63;5039245;28;45373;-71
2022/12/15 11:25:08;;;;;;;;;60.50;50.00;;;;;1.69;60.14;99757.28;5041972;28;45385;-69
2022/12/15 11:27:37;;;;;;;;;68.50;55.00;;;;;1.63;61.10;99747.91;5040488;28;45272;-74
2022/12/15 11:30:14;;;;;;;;;64.50;53.25;;;;;1.61;60.82;99749.66;5020664;28;45464;-70
2022/12/15 11:32:49;;;;;;;;;69.75;54.50;;;;;1.50;60.39;99726.50;5038797;28;45306;-70
2022/12/15 11:35:19;;;;;;;;;70.33;58.00;;;;;1.51;60.79;99728.22;5039647;28;45386;-74
2022/12/15 11:37:50;;;;;;;;;65.00;53.33;;;;;1.52;61.06;99726.44;5038359;28;46566;-72
2022/12/15 11:40:18;;;;;;;;;90.33;76.67;;;;;1.49;61.61;99718.72;5038156;28;45568;-72
2022/12/15 11:43:02;;;;;;;;;66.67;55.00;;;;;1.56;61.03;99721.22;5038232;28;45238;-75
2022/12/15 11:46:06;;;;;;;;;65.00;54.75;;;;;1.56;61.03;99723.81;5037957;28;45210;-74
2022/12/15 11:48:38;;;;;;;;;53.25;44.50;;;;;1.51;60.23;99710.06;5037630;28;45451;-73
2022/12/15 11:51:28;;;;;;;;;65.00;54.00;;;;;1.51;60.22;99715.25;5037633;28;45325;-75
2022/12/15 11:54:01;;;;;;;;;62.50;52.50;;;;;1.49;60.73;99706.66;4986154;28;45374;-68
2022/12/15 11:56:38;;;;;;;;;58.75;48.75;;;;;1.44;60.42;99695.50;5037191;28;45432;-74
2022/12/15 11:59:25;;;;;;;;;53.75;45.50;;;;;1.46;60.27;99697.16;5039514;28;45451;-72
2022/12/15 12:02:15;;;;;;;;;68.75;54.75;;;;;1.51;59.83;99696.22;5021256;28;45321;-71
2022/12/15 12:05:02;;;;;;;;;62.25;51.00;;;;;1.53;59.65;99697.94;5038312;28;45429;-73
2022/12/15 12:07:47;;;;;;;;;58.75;49.50;;;;;1.54;59.40;99688.41;5020367;28;45436;-71
2022/12/15 12:10:34;;;;;;;;;56.25;48.25;;;;;1.55;59.40;99692.72;5038503;28;45284;-71
2022/12/15 12:13:30;;;;;;;;;67.50;53.75;;;;;1.58;60.14;99682.28;5038678;28;45443;-70
2022/12/15 12:16:17;;;;;;;;;62.50;53.25;;;;;1.64;59.87;99676.16;5038373;28;45420;-71
2022/12/15 12:18:55;;;;;;;;;57.00;48.25;;;;;1.72;60.15;99675.13;5038969;28;45274;-72
2022/12/15 12:21:30;;;;;;;;;58.50;48.50;;;;;1.73;59.42;99671.66;5037863;28;45393;-73
2022/12/15 12:24:11;;;;;;;;;61.75;49.50;;;;;1.73;59.04;99671.66;5037737;28;45692;-73
2022/12/15 12:26:45;;;;;;;;;52.50;45.50;;;;;1.69;58.61;99672.59;5019330;28;45364;-71
2022/12/15 12:29:43;;;;;;;;;50.75;44.00;;;;;1.69;57.91;99664.81;5019381;28;45523;-71
2022/12/15 12:32:26;;;;;;;;;63.25;52.25;;;;;1.67;58.54;99657.94;5036837;28;46616;-72
2022/12/15 12:35:15;;;;;;;;;62.50;49.00;;;;;1.68;59.01;99651.88;5037557;28;45366;-72
2022/12/15 12:37:54;;;;;;;;;62.50;52.25;;;;;1.66;58.87;99648.47;5019556;28;45435;-73
2022/12/15 12:40:39;;;;;;;;;61.75;51.75;;;;;1.62;58.60;99654.59;5037957;28;45316;-72
2022/12/15 12:43:05;;;;;;;;;62.25;51.75;;;;;1.58;58.37;99651.19;5037246;28;46584;-72
2022/12/15 12:45:54;;;;;;;;;62.00;51.50;;;;;1.59;59.04;99651.16;5039609;28;45399;-69
2022/12/15 12:48:36;;;;;;;;;60.50;51.00;;;;;1.60;59.05;99657.22;5037485;28;45510;-71
2022/12/15 12:51:19;;;;;;;;;58.00;47.50;;;;;1.56;59.02;99647.75;5037693;28;45415;-70
2022/12/15 12:53:44;;;;;;;;;64.00;51.75;;;;;1.54;58.60;99652.97;5022433;28;47471;-72
2022/12/15 12:56:41;;;;;;;;;61.50;49.25;;;;;1.53;58.77;99645.22;5041059;28;45407;-72
2022/12/15 12:59:28;;;;;;;;;61.25;50.50;;;;;1.56;60.21;99639.97;5037412;28;45370;-72
2022/12/15 13:02:17;;;;;;;;;63.75;52.25;;;;;1.56;59.42;99633.06;5020663;28;45248;-73
2022/12/15 13:04:49;;;;;;;;;63.00;51.75;;;;;1.61;59.56;99640.78;4999612;28;46189;-72
2022/12/15 13:07:28;;;;;;;;;66.50;52.75;;;;;1.65;59.47;99642.44;5038994;28;45392;-71
2022/12/15 13:10:15;;;;;;;;;62.25;52.75;;;;;1.67;59.64;99643.25;5037812;28;45237;-70
2022/12/15 13:12:43;;;;;;;;;61.75;52.25;;;;;1.71;60.51;99641.44;5037392;28;45407;-70
2022/12/15 13:15:26;;;;;;;;;58.00;47.75;;;;;1.73;60.17;99642.28;5036403;28;46519;-72
2022/12/15 13:17:59;;;;;;;;;65.25;54.25;;;;;1.71;59.56;99641.44;5036667;28;45398;-70
2022/12/15 13:20:28;;;;;;;;;63.75;53.75;;;;;1.67;59.99;99639.78;5037480;28;45404;-72
2022/12/15 13:23:15;;;;;;;;;63.25;52.00;;;;;1.65;59.67;99637.25;5018426;28;45526;-69
2022/12/15 13:25:43;;;;;;;;;56.25;48.75;;;;;1.50;60.23;99624.53;5036330;28;45349;-68
2022/12/15 13:28:15;;;;;;;;;62.75;52.25;;;;;1.48;59.98;99634.09;5020150;28;45298;-73
2022/12/15 13:31:12;;;;;;;;;61.00;48.50;;;;;1.62;60.56;99641.63;5036653;28;45258;-70
2022/12/15 13:34:20;;;;;;;;;56.75;48.25;;;;;1.64;60.09;99645.03;5038359;28;45413;-74
2022/12/15 13:36:52;;;;;;;;;58.75;49.25;;;;;1.65;60.47;99647.63;5009156;28;47440;-72
2022/12/15 13:39:17;;;;;;;;;54.00;46.50;;;;;1.65;60.60;99651.94;5035729;28;45283;-73
2022/12/15 13:41:45;;;;;;;;;60.50;51.25;;;;;1.64;60.26;99653.69;5034979;28;45232;-70
2022/12/15 13:44:23;;;;;;;;;57.50;47.00;;;;;1.65;60.61;99638.97;5018809;28;45480;-71
2022/12/15 13:46:51;;;;;;;;;58.25;48.75;;;;;1.68;60.09;99638.91;5037972;28;45521;-72
2022/12/15 13:49:27;;;;;;;;;56.00;48.50;;;;;1.69;60.21;99651.00;5037783;28;45305;-73
2022/12/15 13:52:01;;;;;;;;;55.25;45.50;;;;;1.73;59.84;99643.13;5038054;28;45321;-70
2022/12/15 13:54:35;;;;;;;;;55.75;47.50;;;;;1.72;59.33;99636.25;5037735;28;45500;-70
2022/12/15 13:57:04;;;;;;;;;52.75;46.50;;;;;1.71;58.84;99639.72;5018386;28;46509;-69
2022/12/15 13:59:34;;;;;;;;;51.50;44.50;;;;;1.66;59.12;99627.72;5036806;28;45179;-71
2022/12/15 14:01:59;;;;;;;;;52.50;45.25;;;;;1.66;59.59;99632.91;5035992;28;45277;-68
2022/12/15 14:04:25;;;;;;;;;54.50;44.25;;;;;1.61;58.57;99633.00;5035829;28;45534;-67
2022/12/15 14:06:58;;;;;;;;;50.50;43.25;;;;;1.60;58.37;99634.72;5035608;28;45292;-68
2022/12/15 14:09:31;;;;;;;;;56.00;46.75;;;;;1.58;58.15;99631.31;5035700;28;45427;-69